sensor_id;sensor_type;location;lat;lon;timestamp;temperature;humidity
19403;DHT22;9837;48.888;8.998;2023-04-24T00:01:26;14.00;68.50
19403;DHT22;9837;48.888;8.998;2023-04-24T00:03:52;14.10;68.40
19403;DHT22;9837;48.888;8.998;2023-04-24T00:08:43;14.80;65.90
19403;DHT22;9837;48.888;8.998;2023-04-24T00:11:09;14.90;65.40
19403;DHT22;9837;48.888;8.998;2023-04-24T00:13:35;15.20;64.70
19403;DHT22;9837;48.888;8.998;2023-04-24T00:16:00;15.40;63.30
19403;DHT22;9837;48.888;8.998;2023-04-24T00:18:26;15.10;64.10
19403;DHT22;9837;48.888;8.998;2023-04-24T00:20:52;14.90;65.10
19403;DHT22;9837;48.888;8.998;2023-04-24T00:23:17;14.90;65.80
19403;DHT22;9837;48.888;8.998;2023-04-24T00:25:43;14.20;67.60
19403;DHT22;9837;48.888;8.998;2023-04-24T00:28:08;14.60;66.70
19403;DHT22;9837;48.888;8.998;2023-04-24T00:30:34;15.00;65.10
19403;DHT22;9837;48.888;8.998;2023-04-24T00:32:59;15.30;63.40
19403;DHT22;9837;48.888;8.998;2023-04-24T00:35:25;15.40;62.70
19403;DHT22;9837;48.888;8.998;2023-04-24T00:37:50;15.40;63.40
19403;DHT22;9837;48.888;8.998;2023-04-24T00:40:16;15.60;63.10
19403;DHT22;9837;48.888;8.998;2023-04-24T00:42:42;15.40;62.40
19403;DHT22;9837;48.888;8.998;2023-04-24T00:45:08;15.60;61.90
19403;DHT22;9837;48.888;8.998;2023-04-24T00:47:34;15.80;61.10
19403;DHT22;9837;48.888;8.998;2023-04-24T00:50:04;15.40;61.90
19403;DHT22;9837;48.888;8.998;2023-04-24T00:54:57;15.00;63.10
19403;DHT22;9837;48.888;8.998;2023-04-24T00:57:23;15.00;63.60
19403;DHT22;9837;48.888;8.998;2023-04-24T00:59:50;14.70;64.70
19403;DHT22;9837;48.888;8.998;2023-04-24T01:02:17;14.50;65.30
19403;DHT22;9837;48.888;8.998;2023-04-24T01:04:43;14.40;65.90
19403;DHT22;9837;48.888;8.998;2023-04-24T01:07:09;14.40;66.60
19403;DHT22;9837;48.888;8.998;2023-04-24T01:09:38;14.00;67.70
19403;DHT22;9837;48.888;8.998;2023-04-24T01:12:05;13.80;68.70
19403;DHT22;9837;48.888;8.998;2023-04-24T01:16:57;13.80;68.60
19403;DHT22;9837;48.888;8.998;2023-04-24T01:19:23;13.80;69.20
19403;DHT22;9837;48.888;8.998;2023-04-24T01:21:50;13.90;68.70
19403;DHT22;9837;48.888;8.998;2023-04-24T01:24:18;14.40;67.20
19403;DHT22;9837;48.888;8.998;2023-04-24T01:26:45;14.60;66.30
19403;DHT22;9837;48.888;8.998;2023-04-24T01:29:11;14.30;67.30
19403;DHT22;9837;48.888;8.998;2023-04-24T01:31:38;14.40;66.90
19403;DHT22;9837;48.888;8.998;2023-04-24T01:34:04;14.40;67.60
19403;DHT22;9837;48.888;8.998;2023-04-24T01:36:32;13.70;69.70
19403;DHT22;9837;48.888;8.998;2023-04-24T01:38:58;13.50;70.30
19403;DHT22;9837;48.888;8.998;2023-04-24T01:41:24;13.50;70.80
19403;DHT22;9837;48.888;8.998;2023-04-24T01:43:50;13.70;70.30
19403;DHT22;9837;48.888;8.998;2023-04-24T01:46:16;13.80;69.10
19403;DHT22;9837;48.888;8.998;2023-04-24T01:48:41;13.90;69.80
19403;DHT22;9837;48.888;8.998;2023-04-24T01:51:07;13.70;69.40
19403;DHT22;9837;48.888;8.998;2023-04-24T01:53:33;13.50;70.60
19403;DHT22;9837;48.888;8.998;2023-04-24T01:58:24;13.60;70.60
19403;DHT22;9837;48.888;8.998;2023-04-24T02:00:51;13.80;69.90
19403;DHT22;9837;48.888;8.998;2023-04-24T02:03:16;14.00;68.90
19403;DHT22;9837;48.888;8.998;2023-04-24T02:05:44;14.30;68.10
19403;DHT22;9837;48.888;8.998;2023-04-24T02:08:10;14.10;68.30
19403;DHT22;9837;48.888;8.998;2023-04-24T02:10:35;14.00;69.00
19403;DHT22;9837;48.888;8.998;2023-04-24T02:13:01;14.00;69.20
19403;DHT22;9837;48.888;8.998;2023-04-24T02:15:27;14.00;69.30
19403;DHT22;9837;48.888;8.998;2023-04-24T02:17:53;13.90;69.40
19403;DHT22;9837;48.888;8.998;2023-04-24T02:20:18;13.70;70.20
19403;DHT22;9837;48.888;8.998;2023-04-24T02:22:44;13.50;71.20
19403;DHT22;9837;48.888;8.998;2023-04-24T02:25:09;13.60;71.70
19403;DHT22;9837;48.888;8.998;2023-04-24T02:27:35;13.60;72.40
19403;DHT22;9837;48.888;8.998;2023-04-24T02:30:01;14.20;72.20
19403;DHT22;9837;48.888;8.998;2023-04-24T02:34:52;14.10;72.60
19403;DHT22;9837;48.888;8.998;2023-04-24T02:37:18;14.10;72.40
19403;DHT22;9837;48.888;8.998;2023-04-24T02:39:43;13.70;74.70
19403;DHT22;9837;48.888;8.998;2023-04-24T02:42:09;13.90;74.60
19403;DHT22;9837;48.888;8.998;2023-04-24T02:44:35;13.80;74.90
19403;DHT22;9837;48.888;8.998;2023-04-24T02:47:00;13.40;76.20
19403;DHT22;9837;48.888;8.998;2023-04-24T02:49:26;13.40;76.50
19403;DHT22;9837;48.888;8.998;2023-04-24T02:51:52;13.40;77.20
19403;DHT22;9837;48.888;8.998;2023-04-24T02:54:17;13.30;77.50
19403;DHT22;9837;48.888;8.998;2023-04-24T02:56:43;13.30;76.10
19403;DHT22;9837;48.888;8.998;2023-04-24T02:59:08;13.40;76.90
19403;DHT22;9837;48.888;8.998;2023-04-24T03:01:35;13.60;75.90
19403;DHT22;9837;48.888;8.998;2023-04-24T03:04:01;13.70;75.20
19403;DHT22;9837;48.888;8.998;2023-04-24T03:06:26;14.10;74.00
19403;DHT22;9837;48.888;8.998;2023-04-24T03:08:52;14.40;72.70
19403;DHT22;9837;48.888;8.998;2023-04-24T03:11:18;14.60;71.50
19403;DHT22;9837;48.888;8.998;2023-04-24T03:13:43;14.50;72.00
19403;DHT22;9837;48.888;8.998;2023-04-24T03:16:09;14.60;72.40
19403;DHT22;9837;48.888;8.998;2023-04-24T03:18:35;14.60;73.00
19403;DHT22;9837;48.888;8.998;2023-04-24T03:25:52;13.60;75.90
19403;DHT22;9837;48.888;8.998;2023-04-24T03:28:18;13.20;77.00
19403;DHT22;9837;48.888;8.998;2023-04-24T03:30:44;13.10;77.80
19403;DHT22;9837;48.888;8.998;2023-04-24T03:33:10;13.20;77.80
19403;DHT22;9837;48.888;8.998;2023-04-24T03:35:36;12.70;80.70
19403;DHT22;9837;48.888;8.998;2023-04-24T03:38:01;13.00;79.60
19403;DHT22;9837;48.888;8.998;2023-04-24T03:40:29;12.80;79.60
19403;DHT22;9837;48.888;8.998;2023-04-24T03:42:55;12.70;80.00
19403;DHT22;9837;48.888;8.998;2023-04-24T03:45:20;12.80;80.00
19403;DHT22;9837;48.888;8.998;2023-04-24T03:47:46;13.10;79.50
19403;DHT22;9837;48.888;8.998;2023-04-24T03:52:37;13.70;76.70
19403;DHT22;9837;48.888;8.998;2023-04-24T03:55:03;14.20;74.70
19403;DHT22;9837;48.888;8.998;2023-04-24T03:57:28;14.10;74.50
19403;DHT22;9837;48.888;8.998;2023-04-24T03:59:54;14.40;74.00
19403;DHT22;9837;48.888;8.998;2023-04-24T04:02:19;14.90;72.10
19403;DHT22;9837;48.888;8.998;2023-04-24T04:04:45;15.10;71.00
19403;DHT22;9837;48.888;8.998;2023-04-24T04:07:10;14.70;73.60
19403;DHT22;9837;48.888;8.998;2023-04-24T04:09:36;14.30;75.10
19403;DHT22;9837;48.888;8.998;2023-04-24T04:12:02;14.30;75.50
19403;DHT22;9837;48.888;8.998;2023-04-24T04:14:28;14.50;74.50
19403;DHT22;9837;48.888;8.998;2023-04-24T04:16:53;14.20;71.50
19403;DHT22;9837;48.888;8.998;2023-04-24T04:19:19;14.10;72.70
19403;DHT22;9837;48.888;8.998;2023-04-24T04:21:45;14.20;73.10
19403;DHT22;9837;48.888;8.998;2023-04-24T04:26:37;13.80;73.30
19403;DHT22;9837;48.888;8.998;2023-04-24T04:29:03;13.80;73.10
19403;DHT22;9837;48.888;8.998;2023-04-24T04:31:29;13.80;73.40
19403;DHT22;9837;48.888;8.998;2023-04-24T04:33:55;13.80;74.10
19403;DHT22;9837;48.888;8.998;2023-04-24T04:36:21;13.90;73.40
19403;DHT22;9837;48.888;8.998;2023-04-24T04:38:46;13.90;73.20
19403;DHT22;9837;48.888;8.998;2023-04-24T04:41:12;14.10;72.80
19403;DHT22;9837;48.888;8.998;2023-04-24T04:43:38;14.20;72.20
19403;DHT22;9837;48.888;8.998;2023-04-24T04:46:05;14.40;71.40
19403;DHT22;9837;48.888;8.998;2023-04-24T04:48:31;14.30;71.50
19403;DHT22;9837;48.888;8.998;2023-04-24T04:50:57;14.20;71.90
19403;DHT22;9837;48.888;8.998;2023-04-24T04:53:23;14.10;72.00
19403;DHT22;9837;48.888;8.998;2023-04-24T04:55:49;14.00;72.10
19403;DHT22;9837;48.888;8.998;2023-04-24T04:58:14;13.90;72.60
19403;DHT22;9837;48.888;8.998;2023-04-24T05:00:40;13.80;72.90
19403;DHT22;9837;48.888;8.998;2023-04-24T05:03:06;13.80;73.70
19403;DHT22;9837;48.888;8.998;2023-04-24T05:05:32;13.70;73.60
19403;DHT22;9837;48.888;8.998;2023-04-24T05:07:57;13.70;73.20
19403;DHT22;9837;48.888;8.998;2023-04-24T05:10:23;13.70;73.90
19403;DHT22;9837;48.888;8.998;2023-04-24T05:12:48;13.80;72.40
19403;DHT22;9837;48.888;8.998;2023-04-24T05:15:14;13.80;72.50
19403;DHT22;9837;48.888;8.998;2023-04-24T05:17:40;13.70;72.90
19403;DHT22;9837;48.888;8.998;2023-04-24T05:20:07;13.70;73.70
19403;DHT22;9837;48.888;8.998;2023-04-24T05:22:32;13.70;73.40
19403;DHT22;9837;48.888;8.998;2023-04-24T05:24:58;13.70;74.10
19403;DHT22;9837;48.888;8.998;2023-04-24T05:27:24;14.30;72.20
19403;DHT22;9837;48.888;8.998;2023-04-24T05:29:50;14.30;72.50
19403;DHT22;9837;48.888;8.998;2023-04-24T05:32:16;14.60;69.60
19403;DHT22;9837;48.888;8.998;2023-04-24T05:34:41;14.50;69.10
19403;DHT22;9837;48.888;8.998;2023-04-24T05:37:07;14.50;69.00
19403;DHT22;9837;48.888;8.998;2023-04-24T05:39:35;14.60;69.60
19403;DHT22;9837;48.888;8.998;2023-04-24T05:42:01;15.90;67.10
19403;DHT22;9837;48.888;8.998;2023-04-24T05:44:27;17.50;61.10
19403;DHT22;9837;48.888;8.998;2023-04-24T05:46:53;18.40;57.50
19403;DHT22;9837;48.888;8.998;2023-04-24T05:49:20;18.50;56.10
19403;DHT22;9837;48.888;8.998;2023-04-24T05:51:45;18.20;56.80
19403;DHT22;9837;48.888;8.998;2023-04-24T05:54:11;18.00;56.60
19403;DHT22;9837;48.888;8.998;2023-04-24T05:56:37;17.90;57.10
19403;DHT22;9837;48.888;8.998;2023-04-24T05:59:03;17.60;57.70
19403;DHT22;9837;48.888;8.998;2023-04-24T06:01:28;18.10;57.80
19403;DHT22;9837;48.888;8.998;2023-04-24T06:03:55;19.70;55.90
19403;DHT22;9837;48.888;8.998;2023-04-24T06:06:20;21.90;50.40
19403;DHT22;9837;48.888;8.998;2023-04-24T06:08:46;23.60;45.70
19403;DHT22;9837;48.888;8.998;2023-04-24T06:11:11;24.00;44.10
19403;DHT22;9837;48.888;8.998;2023-04-24T06:13:37;23.40;43.90
19403;DHT22;9837;48.888;8.998;2023-04-24T06:18:28;24.40;43.30
19403;DHT22;9837;48.888;8.998;2023-04-24T06:20:54;25.80;41.00
19403;DHT22;9837;48.888;8.998;2023-04-24T06:23:20;27.50;38.20
19403;DHT22;9837;48.888;8.998;2023-04-24T06:25:46;27.70;36.40
19403;DHT22;9837;48.888;8.998;2023-04-24T06:28:12;26.60;37.70
19403;DHT22;9837;48.888;8.998;2023-04-24T06:30:38;25.40;39.30
19403;DHT22;9837;48.888;8.998;2023-04-24T06:33:03;23.70;41.90
19403;DHT22;9837;48.888;8.998;2023-04-24T06:35:29;22.20;44.40
19403;DHT22;9837;48.888;8.998;2023-04-24T06:37:54;21.20;47.70
19403;DHT22;9837;48.888;8.998;2023-04-24T06:40:21;22.70;46.20
19403;DHT22;9837;48.888;8.998;2023-04-24T06:42:47;24.50;41.80
19403;DHT22;9837;48.888;8.998;2023-04-24T06:45:12;26.30;39.00
19403;DHT22;9837;48.888;8.998;2023-04-24T06:47:38;27.80;36.80
19403;DHT22;9837;48.888;8.998;2023-04-24T06:52:30;28.70;35.30
19403;DHT22;9837;48.888;8.998;2023-04-24T06:55:00;30.00;32.00
19403;DHT22;9837;48.888;8.998;2023-04-24T06:57:26;29.60;32.30
19403;DHT22;9837;48.888;8.998;2023-04-24T06:59:52;29.00;32.80
19403;DHT22;9837;48.888;8.998;2023-04-24T07:02:17;28.10;33.80
19403;DHT22;9837;48.888;8.998;2023-04-24T07:04:43;27.10;34.70
19403;DHT22;9837;48.888;8.998;2023-04-24T07:09:38;25.50;34.90
19403;DHT22;9837;48.888;8.998;2023-04-24T07:12:06;24.90;37.70
19403;DHT22;9837;48.888;8.998;2023-04-24T07:14:32;24.30;39.00
19403;DHT22;9837;48.888;8.998;2023-04-24T07:16:58;23.60;39.70
19403;DHT22;9837;48.888;8.998;2023-04-24T07:19:23;23.10;41.80
19403;DHT22;9837;48.888;8.998;2023-04-24T07:21:49;23.20;41.20
19403;DHT22;9837;48.888;8.998;2023-04-24T07:24:14;22.80;40.20
19403;DHT22;9837;48.888;8.998;2023-04-24T07:26:40;21.30;42.60
19403;DHT22;9837;48.888;8.998;2023-04-24T07:29:06;20.40;44.30
19403;DHT22;9837;48.888;8.998;2023-04-24T07:31:32;19.90;45.90
19403;DHT22;9837;48.888;8.998;2023-04-24T07:33:58;19.30;47.20
19403;DHT22;9837;48.888;8.998;2023-04-24T07:36:24;19.00;48.30
19403;DHT22;9837;48.888;8.998;2023-04-24T07:38:51;18.60;49.00
19403;DHT22;9837;48.888;8.998;2023-04-24T07:41:16;18.20;49.50
19403;DHT22;9837;48.888;8.998;2023-04-24T07:43:42;17.50;50.60
19403;DHT22;9837;48.888;8.998;2023-04-24T07:46:08;17.10;52.40
19403;DHT22;9837;48.888;8.998;2023-04-24T07:48:34;17.10;52.00
19403;DHT22;9837;48.888;8.998;2023-04-24T07:50:59;16.90;51.30
19403;DHT22;9837;48.888;8.998;2023-04-24T07:53:25;16.40;52.30
19403;DHT22;9837;48.888;8.998;2023-04-24T07:55:51;16.30;53.00
19403;DHT22;9837;48.888;8.998;2023-04-24T07:58:16;16.20;53.00
19403;DHT22;9837;48.888;8.998;2023-04-24T08:00:42;15.90;52.90
19403;DHT22;9837;48.888;8.998;2023-04-24T08:03:07;15.70;51.30
19403;DHT22;9837;48.888;8.998;2023-04-24T08:05:33;16.10;51.90
19403;DHT22;9837;48.888;8.998;2023-04-24T08:07:58;15.10;53.00
19403;DHT22;9837;48.888;8.998;2023-04-24T08:10:25;15.50;53.90
19403;DHT22;9837;48.888;8.998;2023-04-24T08:12:51;15.70;52.60
19403;DHT22;9837;48.888;8.998;2023-04-24T08:15:17;15.90;50.70
19403;DHT22;9837;48.888;8.998;2023-04-24T08:17:43;15.90;51.30
19403;DHT22;9837;48.888;8.998;2023-04-24T08:20:10;17.00;48.80
19403;DHT22;9837;48.888;8.998;2023-04-24T08:22:39;17.20;48.60
19403;DHT22;9837;48.888;8.998;2023-04-24T08:25:06;17.20;49.20
19403;DHT22;9837;48.888;8.998;2023-04-24T08:27:32;17.30;48.50
19403;DHT22;9837;48.888;8.998;2023-04-24T08:29:57;17.30;48.60
19403;DHT22;9837;48.888;8.998;2023-04-24T08:32:24;18.00;48.30
19403;DHT22;9837;48.888;8.998;2023-04-24T08:34:49;18.30;47.00
19403;DHT22;9837;48.888;8.998;2023-04-24T08:37:15;18.50;45.30
19403;DHT22;9837;48.888;8.998;2023-04-24T08:39:40;18.20;45.40
19403;DHT22;9837;48.888;8.998;2023-04-24T08:42:06;18.20;46.30
19403;DHT22;9837;48.888;8.998;2023-04-24T08:44:34;18.30;46.00
19403;DHT22;9837;48.888;8.998;2023-04-24T08:47:01;18.30;46.40
19403;DHT22;9837;48.888;8.998;2023-04-24T08:49:28;18.10;46.60
19403;DHT22;9837;48.888;8.998;2023-04-24T08:51:54;18.10;46.10
19403;DHT22;9837;48.888;8.998;2023-04-24T08:54:20;17.50;46.60
19403;DHT22;9837;48.888;8.998;2023-04-24T08:56:48;17.70;47.90
19403;DHT22;9837;48.888;8.998;2023-04-24T08:59:16;17.80;48.10
19403;DHT22;9837;48.888;8.998;2023-04-24T09:01:43;17.70;48.10
19403;DHT22;9837;48.888;8.998;2023-04-24T09:04:10;17.10;48.60
19403;DHT22;9837;48.888;8.998;2023-04-24T09:06:37;16.60;48.20
19403;DHT22;9837;48.888;8.998;2023-04-24T09:09:03;16.60;48.70
19403;DHT22;9837;48.888;8.998;2023-04-24T09:11:30;16.20;47.50
19403;DHT22;9837;48.888;8.998;2023-04-24T09:13:56;16.00;47.90
19403;DHT22;9837;48.888;8.998;2023-04-24T09:16:22;16.10;48.20
19403;DHT22;9837;48.888;8.998;2023-04-24T09:18:50;16.70;47.70
19403;DHT22;9837;48.888;8.998;2023-04-24T09:21:15;17.10;47.30
19403;DHT22;9837;48.888;8.998;2023-04-24T09:26:09;17.50;46.00
19403;DHT22;9837;48.888;8.998;2023-04-24T09:28:36;17.00;47.20
19403;DHT22;9837;48.888;8.998;2023-04-24T09:31:04;17.10;48.10
19403;DHT22;9837;48.888;8.998;2023-04-24T09:33:29;17.20;47.70
19403;DHT22;9837;48.888;8.998;2023-04-24T09:35:55;17.50;46.20
19403;DHT22;9837;48.888;8.998;2023-04-24T09:38:31;17.90;45.40
19403;DHT22;9837;48.888;8.998;2023-04-24T09:40:59;17.80;46.60
19403;DHT22;9837;48.888;8.998;2023-04-24T09:43:26;18.10;47.20
19403;DHT22;9837;48.888;8.998;2023-04-24T09:45:56;18.40;45.90
19403;DHT22;9837;48.888;8.998;2023-04-24T09:48:32;18.40;45.50
19403;DHT22;9837;48.888;8.998;2023-04-24T09:50:59;18.40;45.80
19403;DHT22;9837;48.888;8.998;2023-04-24T09:53:26;18.50;46.00
19403;DHT22;9837;48.888;8.998;2023-04-24T09:55:52;18.70;45.30
19403;DHT22;9837;48.888;8.998;2023-04-24T09:58:28;18.50;45.00
19403;DHT22;9837;48.888;8.998;2023-04-24T10:00:55;18.00;46.00
19403;DHT22;9837;48.888;8.998;2023-04-24T10:03:23;17.70;46.90
19403;DHT22;9837;48.888;8.998;2023-04-24T10:05:49;17.50;47.10
19403;DHT22;9837;48.888;8.998;2023-04-24T10:08:16;17.60;47.50
19403;DHT22;9837;48.888;8.998;2023-04-24T10:10:44;17.40;47.60
19403;DHT22;9837;48.888;8.998;2023-04-24T10:13:11;17.20;47.80
19403;DHT22;9837;48.888;8.998;2023-04-24T10:15:37;17.30;47.70
19403;DHT22;9837;48.888;8.998;2023-04-24T10:18:05;16.90;47.40
19403;DHT22;9837;48.888;8.998;2023-04-24T10:20:32;17.00;47.70
19403;DHT22;9837;48.888;8.998;2023-04-24T10:22:59;17.00;45.90
19403;DHT22;9837;48.888;8.998;2023-04-24T10:25:27;16.40;47.20
19403;DHT22;9837;48.888;8.998;2023-04-24T10:27:53;15.60;49.10
19403;DHT22;9837;48.888;8.998;2023-04-24T10:30:22;15.60;50.00
19403;DHT22;9837;48.888;8.998;2023-04-24T10:35:15;15.30;50.30
19403;DHT22;9837;48.888;8.998;2023-04-24T10:37:50;15.00;51.20
19403;DHT22;9837;48.888;8.998;2023-04-24T10:40:18;15.10;51.40
19403;DHT22;9837;48.888;8.998;2023-04-24T10:42:47;15.40;50.40
19403;DHT22;9837;48.888;8.998;2023-04-24T10:45:17;15.40;50.70
19403;DHT22;9837;48.888;8.998;2023-04-24T10:48:07;15.30;50.90
19403;DHT22;9837;48.888;8.998;2023-04-24T10:50:52;15.40;51.10
19403;DHT22;9837;48.888;8.998;2023-04-24T10:53:20;15.60;51.30
19403;DHT22;9837;48.888;8.998;2023-04-24T10:55:48;15.90;50.60
19403;DHT22;9837;48.888;8.998;2023-04-24T10:58:14;16.20;50.10
19403;DHT22;9837;48.888;8.998;2023-04-24T11:00:42;16.30;50.80
19403;DHT22;9837;48.888;8.998;2023-04-24T11:03:29;17.20;49.00
19403;DHT22;9837;48.888;8.998;2023-04-24T11:06:07;17.40;48.50
19403;DHT22;9837;48.888;8.998;2023-04-24T11:08:43;17.90;47.40
19403;DHT22;9837;48.888;8.998;2023-04-24T11:11:13;17.80;46.70
19403;DHT22;9837;48.888;8.998;2023-04-24T11:16:21;17.30;47.10
19403;DHT22;9837;48.888;8.998;2023-04-24T11:18:52;17.00;48.10
19403;DHT22;9837;48.888;8.998;2023-04-24T11:21:20;17.40;46.60
19403;DHT22;9837;48.888;8.998;2023-04-24T11:23:47;17.80;46.40
19403;DHT22;9837;48.888;8.998;2023-04-24T11:28:49;17.30;46.50
19403;DHT22;9837;48.888;8.998;2023-04-24T11:31:37;17.20;47.30
19403;DHT22;9837;48.888;8.998;2023-04-24T11:34:21;16.30;48.80
19403;DHT22;9837;48.888;8.998;2023-04-24T11:36:48;16.00;49.20
19403;DHT22;9837;48.888;8.998;2023-04-24T11:39:15;16.30;49.40
19403;DHT22;9837;48.888;8.998;2023-04-24T11:41:40;16.50;48.90
19403;DHT22;9837;48.888;8.998;2023-04-24T11:44:07;16.60;47.90
19403;DHT22;9837;48.888;8.998;2023-04-24T11:46:33;16.90;48.80
19403;DHT22;9837;48.888;8.998;2023-04-24T11:48:59;16.90;49.20
19403;DHT22;9837;48.888;8.998;2023-04-24T11:51:26;16.60;48.60
19403;DHT22;9837;48.888;8.998;2023-04-24T11:53:55;16.60;49.40
19403;DHT22;9837;48.888;8.998;2023-04-24T11:56:22;17.10;48.30
19403;DHT22;9837;48.888;8.998;2023-04-24T11:58:48;17.30;47.20
19403;DHT22;9837;48.888;8.998;2023-04-24T12:01:14;17.60;47.40
19403;DHT22;9837;48.888;8.998;2023-04-24T12:03:40;17.60;47.30
19403;DHT22;9837;48.888;8.998;2023-04-24T12:06:10;17.40;47.70
19403;DHT22;9837;48.888;8.998;2023-04-24T12:11:05;17.10;48.60
19403;DHT22;9837;48.888;8.998;2023-04-24T12:13:33;17.10;47.70
19403;DHT22;9837;48.888;8.998;2023-04-24T12:15:59;16.70;47.70
19403;DHT22;9837;48.888;8.998;2023-04-24T12:18:25;16.40;49.50
19403;DHT22;9837;48.888;8.998;2023-04-24T12:23:33;16.20;49.70
19403;DHT22;9837;48.888;8.998;2023-04-24T12:26:00;16.30;50.20
19403;DHT22;9837;48.888;8.998;2023-04-24T12:28:35;16.40;49.80
19403;DHT22;9837;48.888;8.998;2023-04-24T12:33:27;16.60;50.30
19403;DHT22;9837;48.888;8.998;2023-04-24T12:35:54;16.90;50.30
19403;DHT22;9837;48.888;8.998;2023-04-24T12:38:25;17.10;48.60
19403;DHT22;9837;48.888;8.998;2023-04-24T12:41:05;16.70;50.10
19403;DHT22;9837;48.888;8.998;2023-04-24T12:43:31;16.50;50.00
19403;DHT22;9837;48.888;8.998;2023-04-24T12:45:56;16.50;50.60
19403;DHT22;9837;48.888;8.998;2023-04-24T12:48:22;16.50;51.20
19403;DHT22;9837;48.888;8.998;2023-04-24T12:50:48;16.90;50.00
19403;DHT22;9837;48.888;8.998;2023-04-24T12:53:15;16.90;49.20
19403;DHT22;9837;48.888;8.998;2023-04-24T12:55:41;17.00;49.40
19403;DHT22;9837;48.888;8.998;2023-04-24T12:58:07;16.80;50.00
19403;DHT22;9837;48.888;8.998;2023-04-24T13:00:32;17.00;50.00
19403;DHT22;9837;48.888;8.998;2023-04-24T13:02:58;16.90;49.70
19403;DHT22;9837;48.888;8.998;2023-04-24T13:05:23;16.90;50.30
19403;DHT22;9837;48.888;8.998;2023-04-24T13:07:49;17.20;49.60
19403;DHT22;9837;48.888;8.998;2023-04-24T13:10:15;17.20;50.40
19403;DHT22;9837;48.888;8.998;2023-04-24T13:12:40;17.50;50.20
19403;DHT22;9837;48.888;8.998;2023-04-24T13:15:06;17.80;49.40
19403;DHT22;9837;48.888;8.998;2023-04-24T13:17:32;18.10;48.70
19403;DHT22;9837;48.888;8.998;2023-04-24T13:19:59;18.20;47.50
19403;DHT22;9837;48.888;8.998;2023-04-24T13:22:25;18.20;47.10
19403;DHT22;9837;48.888;8.998;2023-04-24T13:24:50;18.00;47.60
19403;DHT22;9837;48.888;8.998;2023-04-24T13:27:16;17.90;48.80
19403;DHT22;9837;48.888;8.998;2023-04-24T13:29:42;18.00;48.10
19403;DHT22;9837;48.888;8.998;2023-04-24T13:32:08;17.80;47.60
19403;DHT22;9837;48.888;8.998;2023-04-24T13:34:33;17.70;47.60
19403;DHT22;9837;48.888;8.998;2023-04-24T13:37:03;17.70;48.00
19403;DHT22;9837;48.888;8.998;2023-04-24T13:39:29;17.30;47.80
19403;DHT22;9837;48.888;8.998;2023-04-24T13:41:55;17.30;48.70
19403;DHT22;9837;48.888;8.998;2023-04-24T13:44:21;17.40;47.90
19403;DHT22;9837;48.888;8.998;2023-04-24T13:46:49;17.60;46.80
19403;DHT22;9837;48.888;8.998;2023-04-24T13:49:15;17.60;46.50
19403;DHT22;9837;48.888;8.998;2023-04-24T13:51:42;17.40;46.80
19403;DHT22;9837;48.888;8.998;2023-04-24T13:54:08;17.40;46.90
19403;DHT22;9837;48.888;8.998;2023-04-24T13:56:33;17.60;47.40
19403;DHT22;9837;48.888;8.998;2023-04-24T13:58:59;17.70;46.50
19403;DHT22;9837;48.888;8.998;2023-04-24T14:01:24;17.70;46.00
19403;DHT22;9837;48.888;8.998;2023-04-24T14:03:51;17.30;46.80
19403;DHT22;9837;48.888;8.998;2023-04-24T14:06:18;17.10;46.90
19403;DHT22;9837;48.888;8.998;2023-04-24T14:08:43;16.90;47.20
19403;DHT22;9837;48.888;8.998;2023-04-24T14:11:09;16.50;48.10
19403;DHT22;9837;48.888;8.998;2023-04-24T14:13:36;16.70;48.70
19403;DHT22;9837;48.888;8.998;2023-04-24T14:16:02;16.80;49.00
19403;DHT22;9837;48.888;8.998;2023-04-24T14:18:27;17.30;48.00
19403;DHT22;9837;48.888;8.998;2023-04-24T14:20:53;17.60;47.90
19403;DHT22;9837;48.888;8.998;2023-04-24T14:23:18;17.80;46.70
19403;DHT22;9837;48.888;8.998;2023-04-24T14:25:45;18.10;46.00
19403;DHT22;9837;48.888;8.998;2023-04-24T14:28:11;18.40;46.40
19403;DHT22;9837;48.888;8.998;2023-04-24T14:35:29;18.70;44.60
19403;DHT22;9837;48.888;8.998;2023-04-24T14:37:56;18.80;46.20
19403;DHT22;9837;48.888;8.998;2023-04-24T14:40:22;19.00;44.70
19403;DHT22;9837;48.888;8.998;2023-04-24T14:42:47;19.20;44.40
19403;DHT22;9837;48.888;8.998;2023-04-24T14:45:13;19.20;44.20
19403;DHT22;9837;48.888;8.998;2023-04-24T14:47:39;18.50;44.70
19403;DHT22;9837;48.888;8.998;2023-04-24T14:50:05;18.50;45.00
19403;DHT22;9837;48.888;8.998;2023-04-24T14:52:31;18.50;45.80
19403;DHT22;9837;48.888;8.998;2023-04-24T14:54:56;18.50;45.50
19403;DHT22;9837;48.888;8.998;2023-04-24T14:57:22;18.10;44.80
19403;DHT22;9837;48.888;8.998;2023-04-24T14:59:48;18.00;45.50
19403;DHT22;9837;48.888;8.998;2023-04-24T15:02:13;17.90;45.50
19403;DHT22;9837;48.888;8.998;2023-04-24T15:07:05;17.30;46.70
19403;DHT22;9837;48.888;8.998;2023-04-24T15:09:30;16.90;47.40
19403;DHT22;9837;48.888;8.998;2023-04-24T15:11:58;16.40;48.50
19403;DHT22;9837;48.888;8.998;2023-04-24T15:14:23;16.30;49.00
19403;DHT22;9837;48.888;8.998;2023-04-24T15:16:49;16.00;49.60
19403;DHT22;9837;48.888;8.998;2023-04-24T15:19:14;16.00;49.50
19403;DHT22;9837;48.888;8.998;2023-04-24T15:26:33;16.90;48.60
19403;DHT22;9837;48.888;8.998;2023-04-24T15:28:58;17.10;47.30
19403;DHT22;9837;48.888;8.998;2023-04-24T15:33:51;17.40;46.90
19403;DHT22;9837;48.888;8.998;2023-04-24T15:36:17;17.10;48.60
19403;DHT22;9837;48.888;8.998;2023-04-24T15:38:43;17.00;49.40
19403;DHT22;9837;48.888;8.998;2023-04-24T15:41:09;17.10;49.60
19403;DHT22;9837;48.888;8.998;2023-04-24T15:43:35;17.20;48.10
19403;DHT22;9837;48.888;8.998;2023-04-24T15:46:01;17.20;48.60
19403;DHT22;9837;48.888;8.998;2023-04-24T15:48:27;17.50;48.60
19403;DHT22;9837;48.888;8.998;2023-04-24T15:53:19;17.40;48.50
19403;DHT22;9837;48.888;8.998;2023-04-24T15:55:51;17.40;48.20
19403;DHT22;9837;48.888;8.998;2023-04-24T15:58:18;17.50;48.60
19403;DHT22;9837;48.888;8.998;2023-04-24T16:00:44;17.60;48.10
19403;DHT22;9837;48.888;8.998;2023-04-24T16:03:10;17.70;48.00
19403;DHT22;9837;48.888;8.998;2023-04-24T16:05:36;17.80;47.40
19403;DHT22;9837;48.888;8.998;2023-04-24T16:08:02;17.50;47.10
19403;DHT22;9837;48.888;8.998;2023-04-24T16:12:53;17.50;47.10
19403;DHT22;9837;48.888;8.998;2023-04-24T16:15:20;17.30;47.10
19403;DHT22;9837;48.888;8.998;2023-04-24T16:17:46;17.10;47.60
19403;DHT22;9837;48.888;8.998;2023-04-24T16:20:12;17.20;47.30
19403;DHT22;9837;48.888;8.998;2023-04-24T16:22:38;17.20;47.60
19403;DHT22;9837;48.888;8.998;2023-04-24T16:25:05;17.20;47.10
19403;DHT22;9837;48.888;8.998;2023-04-24T16:29:57;17.40;46.70
19403;DHT22;9837;48.888;8.998;2023-04-24T16:32:23;17.50;46.90
19403;DHT22;9837;48.888;8.998;2023-04-24T16:34:49;17.30;46.70
19403;DHT22;9837;48.888;8.998;2023-04-24T16:37:14;17.00;47.10
19403;DHT22;9837;48.888;8.998;2023-04-24T16:39:40;16.70;47.60
19403;DHT22;9837;48.888;8.998;2023-04-24T16:42:09;16.80;48.30
19403;DHT22;9837;48.888;8.998;2023-04-24T16:44:35;16.60;47.20
19403;DHT22;9837;48.888;8.998;2023-04-24T16:47:04;16.60;47.50
19403;DHT22;9837;48.888;8.998;2023-04-24T16:49:29;16.60;47.10